Mount Nebo, Pennsylvania
Current Conditions -  °F | °C
As of 6:53 AM on Thursday 27 Nov 2014 (Local Time) from KLNS Reporting Station
Overcast Overcast  
Wind Chill: 28°   Ceiling: 7000
Heat Index: 33°   Visibility: 10mi
Dew Point: 28°   Wind: 6mph
Humidity: 82%   Direction: 290°WNW
Pressure: 30"   Gusts: NA
Location:  39.9024°N, 76.3233°W
Report Text: KLNS 271153Z 29005KT 10SM OVC070 01/M02 A3000 RMK AO2 SLP162 70091 T00061022 10011 20006 53005
Loading
Personal Weather Stations






























Interactive Weather Map New forecast layout! Learn more

10-Day Weather Forecast

Advertisements
Track Severe Weather on mobile